Terminal Aerodrome Forecast
Issued by NWS

Home | Current Version | Previous Version | Text Only | Print | Product List | Glossary On
Versions: 1 2 3 4 5 6 7 8 9 10 11 12 13 14 15 16 17 18 19 20 21 22 23 24 25 26 27 28 29 30 31 32 33 34 35 36 37 38 39 40 41 42 43 44 45 46 47 48 49 50
000
FTUS41 KCTP 141032 AAF
TAFAOO
TAF AMD
KAOO 141032Z 1411/1506 28014KT 4SM -SN BR BKN025 OVC030
     FM141400 31014G21KT 2SM BR OVC025
     FM141500 32015G23KT P6SM BKN050
     FM142000 30007KT P6SM OVC250=

USA.gov is the U.S. government's official web portal to all federal, state and local government web resources and services.